Time;durP1;ratioP1;P1;durP2;ratioP2;P2;SDS_P1;SDS_P2;PMS_P1;PMS_P2;Temp;Humidity;BMP_temperature;BMP_pressure;BME280_temperature;BME280_humidity;BME280_pressure;Samples;Min_cycle;Max_cycle;Signal;HPM_P1;HPM_P2
2022/03/17 00:01:36;;;;;;;116.08;65.42;;;;;;;2.54;70.17;101533.11;2114236;82;21022;-80
2022/03/17 00:04:37;;;;;;;116.97;66.00;;;;;;;2.51;70.42;101529.34;2112167;82;21021;-78
2022/03/17 00:07:41;;;;;;;123.10;68.83;;;;;;;2.49;70.36;101528.58;2117089;82;21090;-80
2022/03/17 00:10:43;;;;;;;117.57;66.95;;;;;;;2.45;70.40;101522.66;2111580;82;21564;-81
2022/03/17 00:13:45;;;;;;;110.95;64.42;;;;;;;2.45;70.42;101521.34;2110827;82;21575;-82
2022/03/17 00:16:46;;;;;;;111.47;65.32;;;;;;;2.49;70.48;101528.58;2113499;82;21557;-78
2022/03/17 00:19:48;;;;;;;113.52;63.52;;;;;;;2.50;70.44;101525.85;2113152;82;21113;-79
2022/03/17 00:22:50;;;;;;;116.03;63.68;;;;;;;2.53;70.48;101527.00;2111138;82;21505;-80
2022/03/17 00:25:51;;;;;;;108.55;64.80;;;;;;;2.56;70.37;101529.92;2111647;82;21097;-79
2022/03/17 00:28:53;;;;;;;118.85;64.75;;;;;;;2.58;70.37;101530.70;2110004;82;21069;-81
2022/03/17 00:31:55;;;;;;;114.35;65.17;;;;;;;2.55;70.40;101525.63;2109075;82;20982;-82
2022/03/17 00:38:19;;;;;;;117.97;64.47;;;;;;;2.46;70.33;101528.27;2123214;82;21079;-81
2022/03/17 00:41:20;;;;;;;116.40;64.85;;;;;;;2.49;70.33;101533.81;2119219;82;21026;-80
2022/03/17 00:44:22;;;;;;;114.12;63.42;;;;;;;2.48;70.28;101529.04;2123464;82;20931;-81
2022/03/17 00:47:24;;;;;;;114.52;63.68;;;;;;;2.51;70.27;101534.59;2120074;82;21468;-81
2022/03/17 00:50:25;;;;;;;109.92;62.62;;;;;;;2.52;70.18;101537.58;2141892;82;21579;-81
2022/03/17 00:53:27;;;;;;;117.70;62.80;;;;;;;2.59;70.15;101546.80;2134963;82;20998;-81
2022/03/17 00:56:29;;;;;;;109.65;63.87;;;;;;;2.61;70.03;101546.26;2135745;82;21074;-82
2022/03/17 00:59:30;;;;;;;105.22;61.10;;;;;;;2.64;70.11;101546.94;2134595;82;21094;-81
2022/03/17 01:02:32;;;;;;;111.28;63.25;;;;;;;2.63;69.68;101538.70;2137567;80;20967;-81
2022/03/17 01:05:33;;;;;;;103.30;60.92;;;;;;;2.52;69.52;101538.42;2141604;82;21022;-81
2022/03/17 01:08:35;;;;;;;111.70;65.70;;;;;;;2.34;69.29;101535.00;2141807;82;21009;-79
2022/03/17 01:11:37;;;;;;;125.30;68.62;;;;;;;2.13;69.40;101543.94;2140515;82;21479;-81
2022/03/17 01:14:38;;;;;;;115.03;66.60;;;;;;;1.91;69.91;101535.84;2140099;82;21619;-80
2022/03/17 01:17:40;;;;;;;111.00;65.92;;;;;;;1.77;70.04;101550.95;2141228;82;20984;-80
2022/03/17 01:20:41;;;;;;;117.45;67.20;;;;;;;1.58;70.11;101544.91;2133794;81;21556;-81
2022/03/17 01:23:43;;;;;;;122.35;68.05;;;;;;;1.50;70.56;101545.73;2137005;81;21057;-81
2022/03/17 01:26:45;;;;;;;116.25;63.28;;;;;;;1.46;70.70;101554.63;2137323;82;21003;-79
2022/03/17 01:29:52;;;;;;;114.70;64.17;;;;;;;1.44;70.39;101557.80;2137974;80;20987;-79
2022/03/17 01:32:53;;;;;;;108.07;63.02;;;;;;;1.44;70.48;101557.34;2141089;80;21561;-80
2022/03/17 01:35:55;;;;;;;107.52;61.20;;;;;;;1.42;70.41;101557.02;2140413;80;21548;-79
2022/03/17 01:38:57;;;;;;;116.30;62.83;;;;;;;1.41;70.45;101552.26;2137961;82;21070;-80
2022/03/17 01:41:59;;;;;;;124.35;68.57;;;;;;;1.42;70.59;101542.17;2138020;82;21050;-79
2022/03/17 01:45:02;;;;;;;127.55;69.67;;;;;;;1.44;70.80;101546.88;2137849;80;21032;-81
2022/03/17 01:48:05;;;;;;;125.18;70.32;;;;;;;1.44;70.91;101544.27;2138185;82;21041;-81
2022/03/17 01:51:06;;;;;;;139.18;76.02;;;;;;;1.46;70.86;101552.02;2092891;82;21054;-80
2022/03/17 01:54:08;;;;;;;132.57;75.22;;;;;;;1.49;70.86;101555.36;2096407;83;21018;-81
2022/03/17 01:57:10;;;;;;;125.40;71.95;;;;;;;1.49;71.31;101546.63;2096100;84;21570;-80
2022/03/17 02:00:17;;;;;;;127.95;67.72;;;;;;;1.49;71.64;101538.36;2098742;82;21104;-80
2022/03/17 02:03:19;;;;;;;124.38;66.47;;;;;;;1.42;72.12;101530.87;2092187;83;21031;-82
2022/03/17 02:06:21;;;;;;;129.12;71.65;;;;;;;1.27;72.43;101525.91;2091478;83;21075;-79
2022/03/17 02:09:27;;;;;;;123.62;66.95;;;;;;;1.21;72.76;101512.67;2096045;83;21016;-81
2022/03/17 02:15:54;;;;;;;130.93;69.37;;;;;;;1.12;72.41;101496.92;2089971;84;21049;-80
2022/03/17 02:18:56;;;;;;;133.63;72.42;;;;;;;1.08;72.77;101484.09;2102062;83;21001;-79
2022/03/17 02:21:57;;;;;;;118.57;62.88;;;;;;;1.09;73.05;101475.31;2096568;82;21017;-82
2022/03/17 02:28:20;;;;;;;128.10;66.22;;;;;;;1.13;74.00;101463.81;2100198;83;21015;-80
2022/03/17 02:31:21;;;;;;;124.55;66.57;;;;;;;1.16;73.76;101462.36;2092882;83;21633;-80
2022/03/17 02:34:23;;;;;;;127.97;67.25;;;;;;;1.18;73.60;101461.80;2088852;83;20994;-81
2022/03/17 02:37:24;;;;;;;120.35;62.62;;;;;;;1.23;73.78;101453.75;2093859;83;21026;-80
2022/03/17 02:40:26;;;;;;;113.85;60.75;;;;;;;1.31;73.63;101448.99;2095313;83;21010;-81
2022/03/17 02:43:28;;;;;;;109.12;58.58;;;;;;;1.40;73.66;101452.92;2096084;83;21089;-80
2022/03/17 02:46:29;;;;;;;118.72;66.45;;;;;;;1.55;74.14;101460.03;2101189;83;20987;-80
2022/03/17 02:49:31;;;;;;;121.47;64.92;;;;;;;1.71;73.79;101479.72;2104942;82;21041;-82
2022/03/17 02:52:33;;;;;;;118.42;62.05;;;;;;;1.78;73.44;101493.74;2107158;82;21596;-81
2022/03/17 02:55:37;;;;;;;116.10;63.13;;;;;;;1.84;73.14;101501.75;2120575;82;21822;-80
2022/03/17 02:58:38;;;;;;;122.25;66.47;;;;;;;1.90;72.80;101514.52;2106117;82;20994;-81
2022/03/17 03:01:40;;;;;;;122.87;66.60;;;;;;;1.97;72.69;101522.47;2106764;82;20990;-82
2022/03/17 03:04:42;;;;;;;112.17;63.45;;;;;;;2.05;72.45;101519.91;2120941;82;21129;-82
2022/03/17 03:07:44;;;;;;;111.88;61.73;;;;;;;2.09;72.23;101526.70;2114122;82;21009;-81
2022/03/17 03:10:46;;;;;;;121.85;66.60;;;;;;;2.09;72.05;101524.92;2110284;82;21454;-82
2022/03/17 03:13:47;;;;;;;126.45;68.52;;;;;;;2.07;71.96;101525.45;2110036;82;21022;-80
2022/03/17 03:16:50;;;;;;;117.57;63.63;;;;;;;2.04;71.91;101530.85;2109958;82;21023;-81
2022/03/17 03:19:52;;;;;;;116.30;60.48;;;;;;;2.06;71.83;101546.03;2106873;82;21057;-80
2022/03/17 03:22:54;;;;;;;112.37;61.53;;;;;;;2.03;71.50;101561.89;2106715;82;21533;-82
2022/03/17 03:25:55;;;;;;;109.97;62.08;;;;;;;1.96;71.38;101572.27;2109467;82;21585;-81
2022/03/17 03:28:57;;;;;;;106.67;59.77;;;;;;;1.88;71.72;101573.11;2110946;82;21027;-82
2022/03/17 03:32:02;;;;;;;114.67;63.98;;;;;;;1.76;71.58;101572.78;2118466;82;21016;-78
2022/03/17 03:37:22;;;;;;;110.08;60.45;;;;;;;1.74;71.51;101578.55;2114590;82;21014;-80
2022/03/17 03:38:08;;;;;;;115.17;63.60;;;;;;;1.69;71.22;101584.92;2114087;82;21026;-80
2022/03/17 03:41:09;;;;;;;124.10;66.05;;;;;;;1.67;71.30;101581.09;2107973;82;20995;-80
2022/03/17 03:44:14;;;;;;;120.47;65.17;;;;;;;1.65;71.21;101588.16;2113394;82;21050;-81
2022/03/17 03:47:15;;;;;;;114.10;62.73;;;;;;;1.61;71.17;101590.55;2108343;82;21588;-81
2022/03/17 03:50:17;;;;;;;121.40;64.92;;;;;;;1.59;71.22;101585.84;2130038;80;21533;-80
2022/03/17 03:53:18;;;;;;;108.92;60.52;;;;;;;1.54;71.19;101596.98;2138831;82;21034;-80
2022/03/17 03:56:20;;;;;;;100.87;57.95;;;;;;;1.45;70.92;101598.73;2135825;82;21013;-80
2022/03/17 03:59:24;;;;;;;112.95;61.83;;;;;;;1.41;70.85;101598.03;2140842;82;21715;-79
2022/03/17 04:02:26;;;;;;;123.97;66.28;;;;;;;1.31;70.87;101600.67;2136115;80;21062;-83
2022/03/17 04:05:29;;;;;;;129.07;69.20;;;;;;;1.10;70.98;101605.14;2133273;81;21276;-80
2022/03/17 04:08:30;;;;;;;122.02;66.30;;;;;;;0.90;71.29;101604.69;2139947;82;20967;-82
2022/03/17 04:11:32;;;;;;;121.97;67.45;;;;;;;0.76;71.71;101601.84;2140184;82;21021;-83
2022/03/17 04:14:33;;;;;;;108.35;61.15;;;;;;;0.68;71.87;101606.13;2139386;82;20998;-81
2022/03/17 04:17:35;;;;;;;122.45;64.05;;;;;;;0.66;71.74;101608.79;2134679;82;21062;-78
2022/03/17 04:20:37;;;;;;;120.80;62.85;;;;;;;0.61;71.64;101615.12;2137317;82;21049;-81
2022/03/17 04:23:38;;;;;;;111.65;63.40;;;;;;;0.52;72.09;101618.14;2135456;82;21038;-81
2022/03/17 04:26:41;;;;;;;110.30;60.85;;;;;;;0.38;72.00;101614.34;2140488;82;21631;-80
2022/03/17 04:29:42;;;;;;;114.88;59.03;;;;;;;0.25;72.36;101623.59;2138576;82;20962;-81
2022/03/17 04:32:44;;;;;;;110.70;62.53;;;;;;;0.17;72.91;101621.33;2135524;82;20986;-80
2022/03/17 04:35:45;;;;;;;114.25;60.60;;;;;;;0.09;73.38;101630.39;2139816;82;20998;-80
2022/03/17 04:38:47;;;;;;;121.35;64.10;;;;;;;0.01;73.93;101641.13;2139195;82;20994;-80
2022/03/17 04:41:48;;;;;;;113.00;63.08;;;;;;;-0.09;74.10;101636.72;2137323;82;21041;-81
2022/03/17 04:44:50;;;;;;;120.33;65.83;;;;;;;-0.13;74.18;101652.11;2137949;82;21547;-80
2022/03/17 04:47:51;;;;;;;117.60;66.12;;;;;;;-0.13;74.21;101657.80;2137531;82;21005;-80
2022/03/17 04:50:53;;;;;;;126.53;67.85;;;;;;;-0.15;74.02;101655.69;2151926;81;21062;-80
2022/03/17 04:53:55;;;;;;;133.95;70.15;;;;;;;-0.12;73.97;101660.78;2151485;81;21033;-80
2022/03/17 04:56:56;;;;;;;130.10;71.02;;;;;;;-0.07;74.06;101668.83;2147254;81;21276;-80
2022/03/17 04:59:58;;;;;;;126.45;67.40;;;;;;;-0.04;74.00;101674.38;2150944;81;21072;-81
2022/03/17 05:02:59;;;;;;;129.00;68.90;;;;;;;-0.03;73.96;101678.25;2143602;81;21509;-81
2022/03/17 05:06:02;;;;;;;120.37;61.53;;;;;;;-0.04;73.93;101680.45;2140240;81;21058;-79
2022/03/17 05:09:05;;;;;;;120.75;63.73;;;;;;;-0.06;74.05;101683.59;2147349;81;21030;-80
2022/03/17 05:12:09;;;;;;;115.17;63.55;;;;;;;-0.11;74.31;101681.62;2144176;81;21038;-79
2022/03/17 05:15:10;;;;;;;125.72;66.62;;;;;;;-0.16;74.48;101678.33;2145023;81;20998;-81
2022/03/17 05:18:12;;;;;;;121.97;64.07;;;;;;;-0.20;74.46;101687.17;2144696;81;21045;-82
2022/03/17 05:21:14;;;;;;;118.75;63.42;;;;;;;-0.17;74.41;101686.20;2145266;81;20995;-80
2022/03/17 05:24:15;;;;;;;133.95;66.05;;;;;;;-0.12;74.35;101683.81;2149080;81;20975;-81
2022/03/17 05:27:17;;;;;;;120.47;65.62;;;;;;;0.01;74.32;101689.41;2143744;81;21053;-80
2022/03/17 05:30:20;;;;;;;134.25;68.87;;;;;;;0.09;74.24;101692.57;2142909;81;21042;-80
2022/03/17 05:33:21;;;;;;;120.02;65.70;;;;;;;0.28;74.36;101691.81;2141252;81;21026;-81
2022/03/17 05:36:25;;;;;;;113.55;62.53;;;;;;;0.48;74.22;101702.75;2141171;81;21073;-79
2022/03/17 05:39:26;;;;;;;115.47;62.90;;;;;;;0.71;74.15;101703.97;2150343;81;21067;-81
2022/03/17 05:42:28;;;;;;;124.92;65.17;;;;;;;1.01;74.14;101710.09;2149999;81;21045;-80
2022/03/17 05:45:30;;;;;;;115.25;62.58;;;;;;;1.36;73.88;101723.40;2144153;81;20990;-81
2022/03/17 05:48:32;;;;;;;113.90;61.15;;;;;;;1.67;73.62;101730.25;2148323;81;21592;-80
2022/03/17 05:51:33;;;;;;;121.67;61.30;;;;;;;2.01;73.27;101735.23;2144973;81;21530;-80
2022/03/17 05:54:35;;;;;;;102.47;60.88;;;;;;;2.26;72.84;101728.83;2150877;81;21084;-80
2022/03/17 05:57:39;;;;;;;111.03;59.98;;;;;;;2.42;72.42;101726.70;2140907;81;21242;-80
2022/03/17 06:00:41;;;;;;;111.50;61.80;;;;;;;2.54;72.14;101727.87;2142328;81;21447;-79
2022/03/17 06:03:42;;;;;;;111.00;59.23;;;;;;;2.73;71.93;101733.48;2149048;81;21413;-79
2022/03/17 06:06:44;;;;;;;114.10;62.65;;;;;;;2.90;71.59;101732.17;2138737;80;21045;-82
2022/03/17 06:09:45;;;;;;;113.37;62.40;;;;;;;3.06;71.48;101738.33;2146470;80;21026;-84
2022/03/17 06:12:48;;;;;;;110.63;62.05;;;;;;;3.36;71.62;101744.24;2141727;81;20990;-82
2022/03/17 06:15:49;;;;;;;101.62;57.17;;;;;;;3.66;71.07;101747.47;2148255;81;21065;-85
2022/03/17 06:18:51;;;;;;;107.32;60.28;;;;;;;3.87;70.51;101754.19;2144479;81;22133;-82
2022/03/17 06:21:53;;;;;;;105.75;59.88;;;;;;;4.10;70.36;101753.39;2148691;81;21066;-83
2022/03/17 06:24:54;;;;;;;104.60;58.63;;;;;;;4.16;69.56;101753.89;2146416;81;21577;-80
2022/03/17 06:27:56;;;;;;;107.17;61.28;;;;;;;4.18;69.40;101757.76;2148148;81;21031;-82
2022/03/17 06:30:58;;;;;;;106.75;60.73;;;;;;;4.27;69.11;101759.39;2135250;81;21025;-81
2022/03/17 06:33:59;;;;;;;106.05;58.13;;;;;;;4.31;69.25;101757.46;2149070;80;21434;-84
2022/03/17 06:37:01;;;;;;;106.20;60.95;;;;;;;4.42;69.01;101766.03;2143925;81;21477;-82
2022/03/17 06:40:09;;;;;;;106.12;60.63;;;;;;;4.59;68.62;101766.38;2145200;81;20991;-82
2022/03/17 06:43:11;;;;;;;96.40;56.33;;;;;;;4.77;68.91;101766.66;2143531;81;21755;-80
2022/03/17 06:46:13;;;;;;;96.15;58.33;;;;;;;5.07;67.67;101771.06;2136336;81;21046;-80
2022/03/17 06:49:14;;;;;;;99.52;54.77;;;;;;;5.24;68.20;101764.80;2124818;81;21075;-81
2022/03/17 06:52:16;;;;;;;99.13;56.77;;;;;;;5.57;67.95;101765.83;2163587;81;20993;-82
2022/03/17 06:55:18;;;;;;;97.37;55.30;;;;;;;5.84;67.88;101770.72;2146877;80;20970;-84
2022/03/17 06:58:20;;;;;;;97.37;56.98;;;;;;;6.13;67.50;101775.96;2152796;81;21100;-81
2022/03/17 07:01:21;;;;;;;98.12;57.25;;;;;;;6.37;66.97;101772.72;2153981;81;21028;-82
2022/03/17 07:04:23;;;;;;;93.62;55.88;;;;;;;6.57;66.84;101773.58;2151529;81;21005;-82
2022/03/17 07:07:27;;;;;;;96.75;57.17;;;;;;;6.74;65.91;101775.11;2155962;81;20973;-83
2022/03/17 07:10:29;;;;;;;91.32;57.35;;;;;;;6.91;65.92;101766.91;2154948;81;21073;-82
2022/03/17 07:13:30;;;;;;;94.30;58.38;;;;;;;7.12;65.98;101776.52;2154320;81;21094;-83
2022/03/17 07:16:32;;;;;;;96.42;56.95;;;;;;;7.24;64.97;101771.34;2154281;81;21000;-85
2022/03/17 07:19:34;;;;;;;95.30;57.10;;;;;;;7.02;63.74;101774.11;2154096;81;21021;-81
2022/03/17 07:22:36;;;;;;;91.47;50.12;;;;;;;6.93;63.41;101767.66;2158693;81;21086;-79
2022/03/17 07:25:38;;;;;;;100.97;60.35;;;;;;;6.89;61.48;101787.27;2154601;81;21057;-80
2022/03/17 07:28:39;;;;;;;98.97;60.55;;;;;;;6.95;62.12;101783.38;2154868;80;21020;-78
2022/03/17 07:31:41;;;;;;;99.60;56.92;;;;;;;6.99;62.11;101778.28;2158942;81;21022;-78
2022/03/17 07:34:43;;;;;;;99.28;59.67;;;;;;;7.03;61.96;101781.55;2152742;81;21471;-79
2022/03/17 07:37:44;;;;;;;97.37;60.10;;;;;;;7.00;61.72;101779.12;2159397;81;21044;-79
2022/03/17 07:40:46;;;;;;;99.97;60.30;;;;;;;7.13;61.87;101781.31;2163483;80;21039;-81
2022/03/17 07:43:48;;;;;;;89.13;51.08;;;;;;;7.38;61.71;101770.77;2158889;80;21092;-79
2022/03/17 07:47:00;;;;;;;101.75;59.93;;;;;;;7.67;60.34;101774.49;2123179;81;21053;-79
2022/03/17 07:50:08;;;;;;;100.60;59.55;;;;;;;7.67;60.03;101768.37;2164606;80;21109;-79
2022/03/17 07:53:10;;;;;;;103.50;59.85;;;;;;;7.72;60.00;101762.29;2136709;82;21002;-80
2022/03/17 07:56:12;;;;;;;98.37;58.58;;;;;;;7.84;60.50;101755.64;2138261;82;21434;-80
2022/03/17 07:59:16;;;;;;;99.80;56.25;;;;;;;7.92;60.09;101761.71;2141554;82;21876;-79
2022/03/17 08:02:19;;;;;;;93.25;57.08;;;;;;;7.76;58.77;101758.46;2135960;82;21037;-79
2022/03/17 08:05:21;;;;;;;95.72;56.90;;;;;;;7.60;59.22;101762.64;2138176;82;21024;-79
2022/03/17 08:08:22;;;;;;;92.15;57.48;;;;;;;7.78;59.37;101769.30;2138532;82;21062;-82
2022/03/17 08:11:24;;;;;;;99.67;60.98;;;;;;;8.13;59.31;101766.41;2140169;80;21045;-79
2022/03/17 08:14:26;;;;;;;95.67;58.08;;;;;;;8.46;58.99;101759.17;2142180;82;21017;-82
2022/03/17 08:17:28;;;;;;;95.10;59.13;;;;;;;8.53;58.73;101759.94;2135868;82;21108;-79
2022/03/17 08:20:30;;;;;;;99.45;59.30;;;;;;;8.58;58.45;101764.03;2138407;82;20962;-79
2022/03/17 08:23:32;;;;;;;98.05;60.12;;;;;;;8.56;56.60;101762.84;2132977;80;21039;-78
2022/03/17 08:26:35;;;;;;;92.53;57.03;;;;;;;8.50;56.97;101742.97;2141510;82;21560;-79
2022/03/17 08:29:38;;;;;;;91.25;55.48;;;;;;;8.67;57.04;101756.73;2139348;80;21029;-82
2022/03/17 08:32:40;;;;;;;96.57;58.23;;;;;;;8.77;57.17;101756.41;2136191;82;22178;-80
2022/03/17 08:35:42;;;;;;;93.52;54.83;;;;;;;8.87;57.15;101765.36;2139678;82;20986;-81
2022/03/17 08:38:44;;;;;;;93.75;56.35;;;;;;;8.83;55.22;101765.70;2143173;81;21037;-79
2022/03/17 08:41:45;;;;;;;90.00;54.38;;;;;;;8.69;55.42;101774.66;2141097;82;21294;-79
2022/03/17 08:44:47;;;;;;;84.40;53.08;;;;;;;8.71;55.22;101766.14;2138727;82;21695;-81
2022/03/17 08:51:10;;;;;;;80.65;48.85;;;;;;;8.93;55.08;101774.65;2136006;81;21059;-81
2022/03/17 08:54:12;;;;;;;87.60;49.50;;;;;;;9.00;53.77;101769.23;2143272;81;21537;-80
2022/03/17 08:57:13;;;;;;;77.55;46.37;;;;;;;9.02;54.69;101760.70;2150839;81;20986;-79
2022/03/17 09:00:15;;;;;;;75.78;41.73;;;;;;;9.16;53.95;101764.47;2148128;81;20984;-79
2022/03/17 09:03:18;;;;;;;69.75;43.55;;;;;;;9.29;52.66;101760.41;2143340;81;21079;-81
2022/03/17 09:06:21;;;;;;;65.08;38.38;;;;;;;9.29;52.91;101768.81;2146497;81;21054;-80
2022/03/17 09:09:23;;;;;;;61.37;38.80;;;;;;;9.45;52.14;101764.50;2144874;80;21013;-80
2022/03/17 09:12:24;;;;;;;66.87;39.65;;;;;;;9.45;49.31;101764.50;2147489;81;21026;-80
2022/03/17 09:15:26;;;;;;;58.42;37.48;;;;;;;9.37;49.49;101761.11;2146836;81;20974;-78
2022/03/17 09:18:28;;;;;;;56.20;33.70;;;;;;;9.41;48.37;101758.61;2146484;81;21017;-78
2022/03/17 09:21:30;;;;;;;53.87;34.60;;;;;;;9.49;47.58;101766.81;2145484;80;20999;-78
2022/03/17 09:24:31;;;;;;;53.20;33.85;;;;;;;9.50;46.31;101764.51;2139247;81;21010;-79
2022/03/17 09:27:33;;;;;;;52.40;32.42;;;;;;;9.54;46.81;101776.54;2140084;81;21054;-81
2022/03/17 09:30:35;;;;;;;50.17;30.43;;;;;;;9.59;47.44;101771.73;2155541;81;20977;-80
2022/03/17 09:33:37;;;;;;;49.30;30.45;;;;;;;9.72;46.51;101773.44;2150515;81;21491;-79
2022/03/17 09:36:39;;;;;;;53.68;31.97;;;;;;;9.70;46.42;101768.24;2143293;81;21008;-81
2022/03/17 09:39:46;;;;;;;46.98;28.12;;;;;;;9.83;46.12;101771.63;2141834;81;20991;-82
2022/03/17 09:42:48;;;;;;;48.65;30.12;;;;;;;9.80;45.15;101773.19;2142176;81;21022;-80
2022/03/17 09:45:53;;;;;;;47.08;30.05;;;;;;;9.65;45.07;101781.01;2146956;81;20983;-82
2022/03/17 09:48:55;;;;;;;48.90;31.73;;;;;;;9.62;46.42;101775.46;2142495;81;21003;-81
2022/03/17 09:51:58;;;;;;;48.50;32.58;;;;;;;9.64;45.60;101772.70;2137441;81;21046;-82
2022/03/17 09:54:59;;;;;;;46.55;30.65;;;;;;;9.69;46.09;101775.01;2135016;81;20990;-82
2022/03/17 09:58:04;;;;;;;49.70;31.42;;;;;;;9.82;46.31;101781.00;2139396;81;21045;-79
2022/03/17 10:01:07;;;;;;;50.45;31.00;;;;;;;9.80;45.82;101779.82;2139795;80;20983;-81
2022/03/17 10:04:09;;;;;;;49.27;29.52;;;;;;;9.80;45.08;101777.17;2141088;81;21570;-81
2022/03/17 10:07:13;;;;;;;44.42;28.98;;;;;;;9.70;44.13;101766.92;2095217;82;21042;-80
2022/03/17 10:10:15;;;;;;;47.88;29.70;;;;;;;9.68;45.00;101771.48;2092199;83;21132;-81
2022/03/17 10:13:25;;;;;;;56.18;32.78;;;;;;;9.68;44.93;101770.16;2092262;84;22065;-78
2022/03/17 10:16:28;;;;;;;66.57;37.83;;;;;;;9.61;44.33;101769.81;2061125;84;21099;-82
2022/03/17 10:19:34;;;;;;;48.63;29.90;;;;;;;9.63;44.88;101774.52;2064672;84;21074;-83
2022/03/17 10:22:49;;;;;;;59.70;38.02;;;;;;;9.74;44.33;101775.46;2064448;84;21598;-82
2022/03/17 10:25:55;;;;;;;48.13;29.60;;;;;;;9.77;44.54;101764.61;2065773;84;21010;-82
2022/03/17 10:29:23;;;;;;;50.40;29.98;;;;;;;9.80;43.50;101771.03;2070308;84;20997;-82
2022/03/17 10:32:22;;;;;;;46.77;28.23;;;;;;;9.74;43.27;101764.41;2065706;84;21072;-79
2022/03/17 10:35:34;;;;;;;48.35;26.75;;;;;;;9.67;42.45;101765.84;2069710;84;21046;-81
2022/03/17 10:38:36;;;;;;;43.63;26.82;;;;;;;9.72;43.09;101774.77;2066558;84;21022;-78
2022/03/17 10:41:45;;;;;;;50.17;26.30;;;;;;;9.79;42.18;101771.48;2064455;84;21126;-80
2022/03/17 10:44:54;;;;;;;44.55;25.65;;;;;;;9.80;42.30;101765.23;2070922;84;20979;-81
2022/03/17 10:48:00;;;;;;;40.03;23.55;;;;;;;9.84;42.05;101765.83;2066394;84;21053;-78
2022/03/17 10:51:02;;;;;;;43.95;24.00;;;;;;;9.88;40.77;101771.23;2063635;84;21113;-80
2022/03/17 10:54:15;;;;;;;39.40;23.75;;;;;;;9.84;41.24;101771.97;2058688;84;21072;-80
2022/03/17 10:57:18;;;;;;;40.40;24.25;;;;;;;10.00;41.64;101764.97;2065165;84;21481;-82
2022/03/17 11:00:28;;;;;;;45.08;24.67;;;;;;;10.14;40.93;101763.03;2063079;84;21512;-80
2022/03/17 11:03:30;;;;;;;38.65;22.70;;;;;;;10.21;40.86;101770.34;2069850;84;21054;-81
2022/03/17 11:06:33;;;;;;;40.25;24.65;;;;;;;10.28;40.16;101767.60;2066256;84;20979;-79
2022/03/17 11:09:42;;;;;;;43.00;24.32;;;;;;;10.41;39.46;101758.63;2071998;84;21012;-79
2022/03/17 11:12:40;;;;;;;39.08;23.42;;;;;;;10.49;39.64;101758.84;2068859;84;21052;-80
2022/03/17 11:15:48;;;;;;;38.88;23.80;;;;;;;10.53;39.42;101765.11;2062988;84;21113;-81
2022/03/17 11:18:50;;;;;;;37.65;22.93;;;;;;;10.55;38.88;101768.46;2052467;83;21003;-78
2022/03/17 11:22:09;;;;;;;37.93;24.72;;;;;;;10.51;39.59;101766.20;2064819;84;21616;-81
2022/03/17 11:25:25;;;;;;;40.80;23.15;;;;;;;10.58;39.58;101759.41;2069680;84;20991;-81
2022/03/17 11:28:39;;;;;;;37.80;24.40;;;;;;;10.63;39.24;101758.55;2064409;84;21582;-80
2022/03/17 11:32:05;;;;;;;38.28;24.10;;;;;;;10.75;38.92;101749.55;2069251;84;21440;-78
2022/03/17 11:35:11;;;;;;;39.58;23.95;;;;;;;10.80;38.31;101758.96;2066838;83;21109;-80
2022/03/17 11:38:19;;;;;;;34.00;23.15;;;;;;;10.68;37.84;101760.34;2067832;83;21035;-82
2022/03/17 11:41:23;;;;;;;40.60;20.12;;;;;;;10.62;37.10;101760.02;2047114;83;21062;-83
2022/03/17 11:44:34;;;;;;;29.50;17.95;;;;;;;10.55;35.95;101752.53;2065363;84;21021;-79
2022/03/17 11:47:38;;;;;;;31.85;20.25;;;;;;;10.52;36.45;101754.61;2066360;83;21053;-82
2022/03/17 11:50:43;;;;;;;37.45;22.52;;;;;;;10.56;36.75;101753.41;2066247;84;21007;-80
2022/03/17 11:54:04;;;;;;;36.53;23.52;;;;;;;10.61;37.00;101753.00;2066082;84;21593;-79
2022/03/17 11:57:05;;;;;;;44.27;25.17;;;;;;;10.65;37.65;101749.98;2063708;83;21018;-82
2022/03/17 12:00:11;;;;;;;39.75;24.40;;;;;;;10.80;38.07;101745.69;2067773;84;21065;-83
2022/03/17 12:03:12;;;;;;;40.63;24.87;;;;;;;10.86;37.09;101739.85;2069464;83;21019;-80
2022/03/17 12:06:21;;;;;;;38.90;24.85;;;;;;;10.94;37.68;101741.38;2064929;84;21011;-83
2022/03/17 12:09:35;;;;;;;42.70;25.05;;;;;;;11.01;37.37;101742.56;2068783;84;21545;-78
2022/03/17 12:12:40;;;;;;;40.98;23.40;;;;;;;11.05;37.95;101747.95;2065417;83;21018;-79
2022/03/17 12:15:45;;;;;;;36.20;23.05;;;;;;;11.10;37.28;101747.58;2072090;84;21041;-80
2022/03/17 12:19:01;;;;;;;30.88;21.30;;;;;;;11.13;38.24;101749.48;2069804;84;21023;-79
2022/03/17 12:22:18;;;;;;;30.27;19.02;;;;;;;11.13;37.46;101750.80;2069456;84;21010;-81
2022/03/17 12:25:26;;;;;;;31.50;20.27;;;;;;;11.16;36.99;101753.69;2066439;84;21055;-78
2022/03/17 12:28:27;;;;;;;33.50;19.75;;;;;;;11.17;36.24;101760.67;2067527;84;21035;-80
2022/03/17 12:31:29;;;;;;;30.23;20.15;;;;;;;11.17;37.19;101757.53;2064408;84;21020;-79
2022/03/17 12:34:33;;;;;;;29.32;20.02;;;;;;;11.18;37.14;101758.39;2064178;84;21031;-78
2022/03/17 12:37:37;;;;;;;32.33;19.45;;;;;;;11.23;37.00;101754.83;2059955;84;20986;-80
2022/03/17 12:40:48;;;;;;;32.65;19.55;;;;;;;11.16;36.29;101751.87;2072838;83;21047;-83
2022/03/17 12:43:51;;;;;;;31.65;19.32;;;;;;;11.11;37.14;101756.73;2067510;84;21541;-80
2022/03/17 12:46:53;;;;;;;28.38;19.15;;;;;;;11.07;36.06;101749.17;2069548;84;21034;-82
2022/03/17 12:49:59;;;;;;;30.05;18.82;;;;;;;10.99;36.54;101734.70;2068456;84;21073;-80
2022/03/17 12:53:00;;;;;;;31.23;18.67;;;;;;;10.94;35.59;101740.05;2047244;84;21093;-79
2022/03/17 12:56:02;;;;;;;32.80;19.25;;;;;;;10.88;37.01;101738.75;2041528;85;21550;-79
2022/03/17 12:59:06;;;;;;;33.13;20.10;;;;;;;10.87;36.56;101742.39;2046269;85;21043;-82
2022/03/17 13:02:08;;;;;;;34.73;20.10;;;;;;;10.81;37.06;101743.38;2039492;85;21048;-82
2022/03/17 13:08:29;;;;;;;31.75;19.40;;;;;;;10.73;36.76;101739.56;2044410;85;21087;-81
2022/03/17 13:14:51;;;;;;;26.50;16.85;;;;;;;10.66;36.94;101739.70;2036208;85;22126;-80
2022/03/17 13:18:06;;;;;;;23.98;14.47;;;;;;;10.62;37.38;101748.08;2038153;85;21011;-79
2022/03/17 13:21:11;;;;;;;28.87;16.85;;;;;;;10.65;37.24;101750.47;2037051;85;21067;-79
2022/03/17 13:24:16;;;;;;;26.73;16.23;;;;;;;10.56;37.71;101748.09;2049882;85;21095;-80
2022/03/17 13:27:23;;;;;;;28.62;15.83;;;;;;;10.53;37.48;101741.69;2042333;85;21039;-81
2022/03/17 13:30:25;;;;;;;25.05;16.23;;;;;;;10.51;36.89;101732.54;2037075;85;21043;-82
2022/03/17 13:33:32;;;;;;;21.68;14.07;;;;;;;10.52;37.52;101733.38;2037106;85;21022;-81
2022/03/17 13:36:58;;;;;;;22.65;14.73;;;;;;;10.53;37.87;101740.36;2042279;85;21703;-78
2022/03/17 13:40:06;;;;;;;21.65;13.60;;;;;;;10.50;37.86;101732.66;2041531;85;21063;-83
2022/03/17 13:43:07;;;;;;;22.00;12.95;;;;;;;10.48;38.20;101724.00;2036497;85;21090;-81
2022/03/17 13:46:24;;;;;;;23.85;12.93;;;;;;;10.46;37.29;101724.11;2040838;85;20998;-80
2022/03/17 13:49:27;;;;;;;18.77;12.07;;;;;;;10.41;37.70;101716.17;2038323;85;21094;-81
2022/03/17 13:52:28;;;;;;;18.12;10.68;;;;;;;10.38;37.97;101717.27;2035679;86;21053;-82
2022/03/17 13:55:58;;;;;;;19.07;11.50;;;;;;;10.35;37.30;101714.03;2122864;82;20986;-82
2022/03/17 13:58:59;;;;;;;17.30;10.78;;;;;;;10.33;37.80;101715.47;2121516;82;21002;-80
2022/03/17 14:02:12;;;;;;;17.10;11.15;;;;;;;10.25;37.50;101711.27;2122926;82;20998;-80
2022/03/17 14:05:15;;;;;;;18.82;11.10;;;;;;;10.21;37.80;101711.98;2125828;82;21021;-81
2022/03/17 14:08:16;;;;;;;16.20;10.68;;;;;;;10.19;37.21;101713.08;2117809;82;21068;-82
2022/03/17 14:11:32;;;;;;;13.28;9.73;;;;;;;10.14;37.53;101716.13;2125108;82;21034;-80
2022/03/17 14:14:34;;;;;;;17.82;10.90;;;;;;;10.13;37.72;101717.07;2116566;82;21026;-80
2022/03/17 14:17:34;;;;;;;22.13;13.55;;;;;;;10.12;38.16;101718.54;2122891;82;21002;-81